Airfield :
LOGIN :

Register | Disclaimer

   EN    FR    IT 

 










Legend :    VFR   Marginal VFR   IFR   Intensive IFR   Very Intensive IFR
Visi :
Ceiling :
>= 8 km
>= 3000ft
5 to 8 km
1000 to 3000 ft
1500m to 5 km
500 to 1000 ft
800 to 1500m
200 to 500 ft
< 800m
< 200 ft
Symbols :   Thunderstorms  Fog  Heavy snow  Heavy precipitations  Wind > 20 kt
SIGMETs :     Misc.  Thunderstorms  Icing  Turbulence  Mountain Waves  Volcanic Ashes







- Airport Elevation : 72 ft
- IATA code : UDE


EHVK - Volkel Airbase

CURRENT METAR :
  • 161225Z AUTO 21017KT 170V250 9999 OVC015 06/03 Q1007 WHT

EXPIRED METARs :
  • 161155Z AUTO 21015KT 180V250 9999 OVC015 06/03 Q1008 WHT
  • 161126Z AUTO 21016KT 190V250 9999 FEW013 OVC015 06/03 Q1009 WHT
  • 161125Z AUTO 21017KT 170V240 9999 SCT014 OVC016 06/03 Q1009 GRN
  • 161055Z AUTO 21017KT 180V240 9999 BKN015 OVC018 06/03 Q1009 WHT
  • 161025Z AUTO 21015KT 190V260 9999 OVC016 06/03 Q1009 WHT
  • 160955Z AUTO 21015KT 180V260 9999 SCT016 BKN020 BKN024 06/03 Q1010 WHT

TAF TAF EHVK
Valid from the 16 at 10:00 until the 16 at 22:00 UTC


160915Z 1610/1622 22014KT 9999 FEW017 SCT020 BKN030
PROB30
TEMPO 1610/1620 SCT018 BKN020
TEMPO 1620/1622 22014G24KT 4000 RA SCT010 BKN015
No reported NOTAMs for that airfield.



MET'MAP, your aeronautical weather chart ! - Copyright ORBIFLY December 2007 - Disclaimer

ORBIFLY MET'MAP TEAM :

Programming & Development : Alexandra Zaïnal
Concept & Development : Baudouin d'Aumeries
Co-Development & Prog : Marc-Olivier Méhu
Technical & hardware support : Manuel Goepfert

Contact : metmap@orbifly.com




SOURCES & CREDITS :

   NOAA